Time;durP1;ratioP1;P1;durP2;ratioP2;P2;SDS_P1;SDS_P2;PMS_P1;PMS_P2;Temp;Humidity;BMP_temperature;BMP_pressure;BME280_temperature;BME280_humidity;BME280_pressure;Samples;Min_cycle;Max_cycle;Signal;HPM_P1;HPM_P2
2023/09/24 00:01:36;;;;;;;5.28;2.08;;;;;;;15.42;62.14;102233.09;5057471;28;20185;-68
2023/09/24 00:04:06;;;;;;;8.27;2.22;;;;;;;15.41;62.09;102240.41;5061335;27;20097;-68
2023/09/24 00:06:33;;;;;;;4.53;2.45;;;;;;;15.38;62.13;102243.53;5058389;28;20101;-68
2023/09/24 00:09:01;;;;;;;4.30;2.20;;;;;;;15.38;62.15;102245.44;5062060;28;20064;-68
2023/09/24 00:11:29;;;;;;;3.67;1.98;;;;;;;15.36;62.12;102242.09;5060152;27;20401;-68
2023/09/24 00:13:57;;;;;;;4.88;2.53;;;;;;;15.35;62.30;102246.69;5084437;27;20128;-68
2023/09/24 00:16:25;;;;;;;5.85;1.83;;;;;;;15.34;62.30;102242.31;5062422;27;20484;-68
2023/09/24 00:18:53;;;;;;;6.03;2.50;;;;;;;15.33;62.08;102248.78;5061562;27;20060;-68
2023/09/24 00:21:22;;;;;;;3.33;1.90;;;;;;;15.32;61.96;102249.84;5060063;28;20041;-68
2023/09/24 00:23:49;;;;;;;9.07;2.90;;;;;;;15.33;62.13;102253.38;5060714;28;20144;-68
2023/09/24 00:26:18;;;;;;;4.50;1.98;;;;;;;15.32;62.02;102260.69;5060192;27;20120;-67
2023/09/24 00:28:46;;;;;;;6.18;2.17;;;;;;;15.31;62.03;102261.72;5060082;28;20052;-68
2023/09/24 00:31:14;;;;;;;7.13;2.53;;;;;;;15.28;62.11;102257.56;5060605;27;20041;-68
2023/09/24 00:33:42;;;;;;;5.65;2.33;;;;;;;15.27;62.02;102255.91;5060816;28;20060;-68
2023/09/24 00:36:11;;;;;;;6.40;1.90;;;;;;;15.27;62.04;102257.78;5059639;27;20125;-68
2023/09/24 00:38:40;;;;;;;5.95;2.33;;;;;;;15.27;61.95;102255.91;5057640;28;20646;-68
2023/09/24 00:41:08;;;;;;;4.57;2.00;;;;;;;15.25;62.03;102255.31;5058413;27;20093;-68
2023/09/24 00:43:36;;;;;;;5.75;2.10;;;;;;;15.28;61.76;102256.75;5061164;28;20385;-67
2023/09/24 00:46:06;;;;;;;2.85;1.95;;;;;;;15.26;62.00;102256.97;5059303;27;20049;-68
2023/09/24 00:48:35;;;;;;;4.50;2.50;;;;;;;15.25;61.85;102258.00;5065250;27;20049;-67
2023/09/24 00:51:11;;;;;;;6.20;1.98;;;;;;;15.25;61.80;102265.31;5059450;28;20224;-68
2023/09/24 00:53:41;;;;;;;7.78;2.22;;;;;;;15.24;61.73;102267.19;5058004;28;20057;-67
2023/09/24 00:56:09;;;;;;;4.47;2.13;;;;;;;15.24;61.75;102267.19;5059795;27;20045;-68
2023/09/24 00:58:39;;;;;;;4.35;2.22;;;;;;;15.23;61.67;102280.94;5059731;28;20421;-68
2023/09/24 01:01:07;;;;;;;3.42;1.90;;;;;;;15.23;61.69;102267.41;5057203;28;20317;-68
2023/09/24 01:03:40;;;;;;;3.70;2.28;;;;;;;15.20;61.83;102270.53;5059545;27;20045;-68
2023/09/24 01:06:09;;;;;;;7.32;2.30;;;;;;;15.22;61.67;102271.16;5057821;28;20501;-67
2023/09/24 01:08:37;;;;;;;4.55;2.25;;;;;;;15.13;61.67;102258.94;5057570;27;20046;-68
2023/09/24 01:11:06;;;;;;;7.53;2.08;;;;;;;15.19;61.83;102272.44;5059851;28;20630;-67
2023/09/24 01:13:38;;;;;;;4.85;2.42;;;;;;;15.16;61.55;102264.75;5061808;27;20053;-68
2023/09/24 01:16:07;;;;;;;6.70;2.80;;;;;;;15.17;61.61;102268.28;5059849;28;20049;-67
2023/09/24 01:18:36;;;;;;;6.90;2.38;;;;;;;15.16;61.59;102272.03;5057249;27;20049;-67
2023/09/24 01:21:07;;;;;;;3.97;2.20;;;;;;;15.14;61.42;102268.72;5055749;27;20041;-68
2023/09/24 01:23:38;;;;;;;4.20;2.65;;;;;;;15.13;61.61;102275.19;5060996;27;20083;-68
2023/09/24 01:26:07;;;;;;;5.03;2.30;;;;;;;15.13;61.37;102277.88;5058664;28;20093;-68
2023/09/24 01:28:35;;;;;;;5.13;2.72;;;;;;;15.11;61.53;102277.25;5062518;27;20048;-67
2023/09/24 01:31:03;;;;;;;2.70;1.80;;;;;;;15.10;61.60;102273.72;5057779;28;20056;-68
2023/09/24 01:33:31;;;;;;;3.42;2.17;;;;;;;15.05;61.77;102270.00;5057915;27;20041;-68
2023/09/24 01:35:59;;;;;;;3.08;1.88;;;;;;;14.96;61.74;102255.91;5057641;27;20186;-68
2023/09/24 01:38:27;;;;;;;4.15;2.17;;;;;;;15.05;61.57;102273.56;5060293;27;20066;-68
2023/09/24 01:40:58;;;;;;;7.45;2.60;;;;;;;15.00;61.56;102261.72;5069851;27;20081;-68
2023/09/24 01:43:26;;;;;;;8.13;1.95;;;;;;;15.03;61.65;102264.81;5062145;27;20041;-68
2023/09/24 01:45:53;;;;;;;5.20;1.98;;;;;;;15.03;61.70;102261.28;5059602;28;20049;-68
2023/09/24 01:48:21;;;;;;;3.08;1.77;;;;;;;15.01;61.42;102256.06;5055795;27;20074;-68
2023/09/24 01:50:49;;;;;;;3.22;1.75;;;;;;;15.00;61.39;102259.00;5057222;27;20049;-68
2023/09/24 01:53:17;;;;;;;3.65;1.92;;;;;;;14.96;61.55;102256.72;5059450;28;20049;-68
2023/09/24 01:55:45;;;;;;;5.53;2.30;;;;;;;15.00;61.13;102267.13;5059958;28;20060;-68
2023/09/24 01:58:14;;;;;;;3.60;1.95;;;;;;;14.98;61.40;102254.63;5058628;27;20132;-67
2023/09/24 02:00:42;;;;;;;6.40;2.50;;;;;;;14.97;61.22;102260.25;5054080;27;20409;-68
2023/09/24 02:03:11;;;;;;;5.05;2.30;;;;;;;14.96;61.08;102259.44;5059884;27;20044;-68
2023/09/24 02:05:42;;;;;;;6.80;2.78;;;;;;;14.95;61.14;102259.66;5057267;28;20691;-68
2023/09/24 02:08:10;;;;;;;3.38;1.83;;;;;;;14.95;61.27;102262.34;5058717;28;20044;-67
2023/09/24 02:10:40;;;;;;;3.45;2.08;;;;;;;14.93;61.02;102265.28;5060366;27;20056;-68
2023/09/24 02:13:10;;;;;;;5.35;2.35;;;;;;;14.92;61.20;102265.50;5058969;28;20052;-68
2023/09/24 02:15:40;;;;;;;4.55;2.00;;;;;;;14.90;61.15;102273.84;5058377;28;20083;-68
2023/09/24 02:18:09;;;;;;;6.97;2.15;;;;;;;14.84;61.49;102268.44;5060574;27;20397;-67
2023/09/24 02:20:38;;;;;;;7.82;2.20;;;;;;;14.87;61.30;102279.69;5056254;27;20072;-67
2023/09/24 02:23:06;;;;;;;4.28;2.00;;;;;;;14.87;61.04;102289.69;5057942;28;20040;-66
2023/09/24 02:25:35;;;;;;;5.07;2.08;;;;;;;14.83;61.08;102289.28;5059139;28;20057;-67
2023/09/24 02:28:04;;;;;;;4.28;2.33;;;;;;;14.82;61.57;102292.19;5058927;28;20045;-67
2023/09/24 02:30:34;;;;;;;3.42;1.90;;;;;;;14.80;61.43;102287.00;5055346;27;20049;-67
2023/09/24 02:33:04;;;;;;;6.40;2.13;;;;;;;14.78;61.17;102285.53;5062598;27;20123;-68
2023/09/24 02:35:32;;;;;;;4.75;2.17;;;;;;;14.78;61.38;102282.84;5056668;28;20049;-67
2023/09/24 02:38:00;;;;;;;4.85;2.05;;;;;;;14.76;61.07;102299.28;5058076;28;20076;-68
2023/09/24 02:40:28;;;;;;;8.65;2.30;;;;;;;14.76;61.45;102284.94;5059388;27;20045;-68
2023/09/24 02:42:57;;;;;;;6.05;1.88;;;;;;;14.74;61.34;102289.72;5058633;27;20045;-68
2023/09/24 02:45:26;;;;;;;6.60;2.63;;;;;;;14.73;61.06;102288.91;5058347;28;20053;-68
2023/09/24 02:47:54;;;;;;;4.18;2.15;;;;;;;14.68;61.12;102283.28;5059187;27;20144;-68
2023/09/24 02:50:25;;;;;;;3.15;1.85;;;;;;;14.56;61.31;102268.78;5058082;28;20061;-68
2023/09/24 02:52:55;;;;;;;6.22;2.10;;;;;;;14.67;61.16;102289.75;5063131;27;20053;-68
2023/09/24 02:55:24;;;;;;;4.80;1.73;;;;;;;14.66;61.05;102296.22;5058503;28;20105;-68
2023/09/24 02:57:52;;;;;;;4.50;2.08;;;;;;;14.67;61.35;102297.03;5070700;27;20044;-68
2023/09/24 03:00:26;;;;;;;4.85;1.98;;;;;;;14.67;60.96;102289.75;5066723;27;20046;-68
2023/09/24 03:02:55;;;;;;;4.30;1.83;;;;;;;14.67;60.75;102288.91;5052491;27;20052;-68
2023/09/24 03:05:28;;;;;;;3.85;2.15;;;;;;;14.67;61.02;102291.63;5059737;28;20045;-68
2023/09/24 03:07:59;;;;;;;4.78;2.22;;;;;;;14.67;60.83;102297.88;5062062;28;20049;-68
2023/09/24 03:10:27;;;;;;;3.95;2.17;;;;;;;14.66;60.88;102298.91;5062157;28;20048;-68
2023/09/24 03:12:55;;;;;;;3.97;2.00;;;;;;;14.66;60.74;102298.91;5059894;27;20189;-68
2023/09/24 03:15:24;;;;;;;7.10;2.70;;;;;;;14.66;60.56;102304.31;5060090;27;20120;-68
2023/09/24 03:17:52;;;;;;;6.32;1.92;;;;;;;14.65;60.71;102295.38;5061038;27;21301;-67
2023/09/24 03:20:20;;;;;;;6.28;2.08;;;;;;;14.67;60.64;102303.28;5061332;28;20049;-68
2023/09/24 03:22:50;;;;;;;6.07;2.63;;;;;;;14.66;60.58;102304.31;5061861;28;20045;-67
2023/09/24 03:25:19;;;;;;;3.95;1.92;;;;;;;14.65;60.36;102299.97;5066066;27;20055;-67
2023/09/24 03:27:48;;;;;;;3.28;1.63;;;;;;;14.64;60.21;102307.25;5058721;27;20057;-67
2023/09/24 03:30:17;;;;;;;2.95;1.65;;;;;;;14.62;60.47;102308.50;5061575;27;20048;-67
2023/09/24 03:32:46;;;;;;;4.50;1.90;;;;;;;14.60;60.48;102316.84;5061158;28;20059;-67
2023/09/24 03:35:15;;;;;;;6.45;2.25;;;;;;;14.59;60.69;102314.34;5062633;27;20053;-67
2023/09/24 03:37:44;;;;;;;3.28;2.00;;;;;;;14.59;60.57;102315.16;5061589;28;20069;-68
2023/09/24 03:40:15;;;;;;;3.58;2.00;;;;;;;14.57;60.67;102325.38;5061563;28;20049;-68
2023/09/24 03:42:43;;;;;;;4.97;2.13;;;;;;;14.47;60.59;102311.44;5061570;28;20043;-68
2023/09/24 03:45:13;;;;;;;2.97;1.55;;;;;;;14.53;60.65;102326.00;5058182;27;20185;-67
2023/09/24 03:47:41;;;;;;;3.97;1.80;;;;;;;14.50;60.67;102327.25;5061436;28;20052;-68
2023/09/24 03:50:13;;;;;;;4.72;1.95;;;;;;;14.49;60.61;102330.19;5063282;27;20102;-68
2023/09/24 03:52:41;;;;;;;5.25;1.90;;;;;;;14.50;60.76;102334.56;5061359;27;20085;-68
2023/09/24 03:55:09;;;;;;;5.57;2.25;;;;;;;14.48;60.65;102332.06;5063032;27;20767;-67
2023/09/24 03:57:39;;;;;;;5.80;2.22;;;;;;;14.49;60.51;102327.47;5059577;28;20049;-68
2023/09/24 04:00:11;;;;;;;3.60;1.90;;;;;;;14.35;60.48;102313.13;5054157;28;20742;-67
2023/09/24 04:02:40;;;;;;;7.53;2.53;;;;;;;14.47;60.40;102335.81;5057594;28;20049;-67
2023/09/24 04:05:13;;;;;;;4.57;1.88;;;;;;;14.45;60.30;102337.06;5076740;27;20064;-67
2023/09/24 04:07:42;;;;;;;3.65;1.98;;;;;;;14.43;60.59;102337.25;5060330;27;20041;-67
2023/09/24 04:10:14;;;;;;;3.55;1.95;;;;;;;14.42;60.26;102340.19;5060424;28;20378;-67
2023/09/24 04:12:46;;;;;;;2.95;1.90;;;;;;;14.41;60.46;102339.31;5055687;28;20066;-67
2023/09/24 04:15:15;;;;;;;4.75;2.53;;;;;;;14.41;60.50;102343.91;5067746;27;20045;-67
2023/09/24 04:17:44;;;;;;;3.65;1.98;;;;;;;14.41;60.35;102343.91;5059757;27;20057;-67
2023/09/24 04:20:15;;;;;;;3.70;1.80;;;;;;;14.40;60.38;102347.66;5059881;28;20056;-67
2023/09/24 04:22:44;;;;;;;6.22;1.95;;;;;;;14.42;60.42;102353.72;5061621;28;20045;-66
2023/09/24 04:25:14;;;;;;;4.45;2.22;;;;;;;14.40;60.40;102350.34;5059362;28;20078;-66
2023/09/24 04:27:44;;;;;;;5.50;2.20;;;;;;;14.41;60.36;102346.59;5058853;27;20125;-67
2023/09/24 04:30:16;;;;;;;3.58;1.70;;;;;;;14.41;60.40;102346.59;5058187;27;20048;-67
2023/09/24 04:32:47;;;;;;;2.55;1.80;;;;;;;14.41;60.35;102346.59;5058013;27;20062;-67
2023/09/24 04:35:19;;;;;;;4.20;2.08;;;;;;;14.39;60.31;102354.09;5058492;28;20097;-66
2023/09/24 04:37:46;;;;;;;2.83;1.55;;;;;;;14.38;60.27;102352.44;5062126;27;20056;-67
2023/09/24 04:40:15;;;;;;;4.28;1.60;;;;;;;14.36;60.27;102344.53;5060582;28;20041;-67
2023/09/24 04:42:45;;;;;;;4.78;1.75;;;;;;;14.36;60.39;102354.50;5068086;27;20077;-67
2023/09/24 04:45:14;;;;;;;4.30;1.92;;;;;;;14.34;60.48;102355.56;5062766;27;20051;-67
2023/09/24 04:47:43;;;;;;;4.95;2.35;;;;;;;14.29;60.22;102346.41;5060459;27;20060;-67
2023/09/24 04:50:12;;;;;;;3.67;1.48;;;;;;;14.31;60.44;102355.97;5061793;27;20058;-67
2023/09/24 04:52:42;;;;;;;3.88;2.20;;;;;;;14.29;60.42;102349.94;5060804;28;20057;-68
2023/09/24 04:55:11;;;;;;;5.93;2.03;;;;;;;14.28;60.23;102353.69;4706445;28;10000005;-67
2023/09/24 04:57:39;;;;;;;3.28;1.98;;;;;;;14.28;60.57;102345.56;5057074;28;20045;-66
2023/09/24 05:00:10;;;;;;;4.03;1.80;;;;;;;14.27;60.58;102351.19;5057786;27;20049;-68
2023/09/24 05:02:38;;;;;;;3.80;2.05;;;;;;;14.28;60.36;102353.69;5053428;27;20044;-68
2023/09/24 05:05:07;;;;;;;5.15;1.85;;;;;;;14.27;60.28;102348.50;5062422;27;20052;-68
2023/09/24 05:07:35;;;;;;;4.95;2.08;;;;;;;14.28;60.13;102356.41;5054753;27;20371;-68
2023/09/24 05:10:03;;;;;;;3.33;1.67;;;;;;;14.26;60.17;102358.47;5057538;27;20102;-68
2023/09/24 05:12:31;;;;;;;5.57;2.33;;;;;;;14.26;60.38;102361.19;5054473;27;20070;-68
2023/09/24 05:14:58;;;;;;;5.78;2.40;;;;;;;14.22;60.16;102359.94;5053528;28;20041;-68
2023/09/24 05:17:28;;;;;;;2.95;2.40;;;;;;;14.25;60.15;102370.34;5054729;28;20093;-69
2023/09/24 05:19:56;;;;;;;5.65;1.95;;;;;;;14.25;60.11;102364.09;5058911;27;20079;-68
2023/09/24 05:22:27;;;;;;;6.80;2.20;;;;;;;14.24;60.16;102371.38;5055612;28;20426;-68
2023/09/24 05:24:55;;;;;;;4.93;2.30;;;;;;;14.23;59.97;102375.13;5057496;27;20045;-68
2023/09/24 05:27:24;;;;;;;4.20;2.10;;;;;;;14.19;60.10;102368.47;5056512;27;20524;-69
2023/09/24 05:29:52;;;;;;;7.45;2.05;;;;;;;14.22;60.27;102376.16;5052334;27;20048;-69
2023/09/24 05:32:20;;;;;;;6.50;2.22;;;;;;;14.20;60.44;102378.25;5051149;27;20069;-68
2023/09/24 05:34:54;;;;;;;4.00;2.38;;;;;;;14.16;60.26;102381.56;5052723;27;20160;-68
2023/09/24 05:37:22;;;;;;;6.05;1.92;;;;;;;14.17;60.29;102388.63;5054153;28;20044;-69
2023/09/24 05:39:50;;;;;;;4.22;1.88;;;;;;;14.10;60.25;102380.53;5055758;27;20049;-68
2023/09/24 05:42:18;;;;;;;3.55;1.92;;;;;;;14.15;60.43;102394.25;5056381;27;20057;-68
2023/09/24 05:44:45;;;;;;;5.95;2.03;;;;;;;14.13;60.14;102399.03;5060103;27;20045;-69
2023/09/24 05:47:14;;;;;;;4.93;2.53;;;;;;;14.13;60.22;102398.22;5054022;27;20055;-68
2023/09/24 05:49:41;;;;;;;5.13;2.20;;;;;;;14.11;60.47;102398.41;5054085;27;20087;-69
2023/09/24 05:52:10;;;;;;;3.38;1.85;;;;;;;14.11;60.54;102403.81;5057309;27;20045;-69
2023/09/24 05:54:38;;;;;;;3.80;1.90;;;;;;;14.13;60.15;102400.91;5059219;27;20048;-70
2023/09/24 05:57:06;;;;;;;5.07;2.20;;;;;;;14.12;60.03;102410.06;5056220;27;20045;-68
2023/09/24 05:59:34;;;;;;;4.45;1.92;;;;;;;14.13;60.40;102411.72;5052947;27;20057;-67
2023/09/24 06:02:02;;;;;;;4.47;2.00;;;;;;;14.10;60.52;102406.72;5062323;27;20076;-67
2023/09/24 06:04:31;;;;;;;8.63;2.13;;;;;;;14.13;60.22;102412.56;5061050;27;20045;-67
2023/09/24 06:06:59;;;;;;;5.88;2.47;;;;;;;14.13;60.19;102409.03;5051313;27;20072;-67
2023/09/24 06:09:30;;;;;;;2.95;1.90;;;;;;;14.12;60.41;102413.59;5059964;27;20045;-68
2023/09/24 06:11:58;;;;;;;6.63;2.30;;;;;;;14.09;60.51;102414.00;5057345;27;20070;-68
2023/09/24 06:14:26;;;;;;;7.80;2.50;;;;;;;14.10;60.09;102412.13;5068464;27;20050;-67
2023/09/24 06:16:53;;;;;;;7.57;2.20;;;;;;;14.10;60.54;102422.94;5078151;27;20056;-67
2023/09/24 06:19:21;;;;;;;4.82;2.33;;;;;;;14.06;60.12;102411.72;5063213;27;20050;-68
2023/09/24 06:21:51;;;;;;;3.95;2.17;;;;;;;14.10;60.36;102417.53;5057834;27;20052;-67
2023/09/24 06:24:20;;;;;;;3.72;1.88;;;;;;;14.11;60.52;102430.03;5055978;27;20049;-67
2023/09/24 06:26:49;;;;;;;5.90;2.30;;;;;;;14.10;60.23;102425.66;5064808;27;20084;-68
2023/09/24 06:29:17;;;;;;;4.25;2.08;;;;;;;14.07;60.53;102428.78;5064450;27;20056;-68
2023/09/24 06:31:46;;;;;;;4.47;2.30;;;;;;;14.05;60.76;102422.75;5056498;27;20049;-68
2023/09/24 06:34:14;;;;;;;6.03;1.95;;;;;;;14.04;60.78;102432.72;5057030;28;20045;-68
2023/09/24 06:36:42;;;;;;;6.47;2.22;;;;;;;14.01;60.73;102428.56;5057337;28;20048;-68
2023/09/24 06:39:14;;;;;;;3.35;2.08;;;;;;;14.02;61.19;102424.81;5064987;28;20056;-68
2023/09/24 06:41:42;;;;;;;6.93;2.30;;;;;;;13.92;61.01;102413.56;5065349;27;20080;-68
2023/09/24 06:44:13;;;;;;;4.95;2.28;;;;;;;14.04;61.10;102438.13;5061369;28;20071;-69
2023/09/24 06:46:41;;;;;;;6.22;2.30;;;;;;;14.02;60.97;102432.09;5058987;27;20081;-69
2023/09/24 06:49:09;;;;;;;5.78;2.70;;;;;;;13.99;61.32;102427.94;5063623;27;20341;-69
2023/09/24 06:51:37;;;;;;;4.22;2.05;;;;;;;14.01;61.17;102436.66;5061678;27;20101;-69
2023/09/24 06:54:05;;;;;;;4.15;2.03;;;;;;;13.96;61.50;102430.22;5060589;27;20582;-72
2023/09/24 06:56:33;;;;;;;5.43;2.55;;;;;;;13.98;61.50;102438.94;5068877;27;20072;-65
2023/09/24 06:59:00;;;;;;;6.50;2.08;;;;;;;13.99;61.63;102444.16;5062781;27;20199;-67
2023/09/24 07:01:30;;;;;;;4.50;2.13;;;;;;;14.00;61.74;102440.41;5059035;28;20523;-66
2023/09/24 07:03:57;;;;;;;6.75;2.50;;;;;;;13.99;61.44;102444.16;5060123;27;20131;-70
2023/09/24 07:06:26;;;;;;;7.13;2.40;;;;;;;13.97;61.79;102442.69;5059817;27;20049;-71
2023/09/24 07:08:54;;;;;;;5.50;2.35;;;;;;;13.94;62.02;102435.81;5062935;28;20056;-71
2023/09/24 07:11:25;;;;;;;5.85;2.50;;;;;;;13.96;61.65;102441.03;5070024;27;20070;-70
2023/09/24 07:13:53;;;;;;;4.53;1.88;;;;;;;14.02;62.02;102449.16;5061105;27;20041;-70
2023/09/24 07:16:23;;;;;;;4.35;2.25;;;;;;;14.04;61.56;102448.94;5064166;27;20496;-70
2023/09/24 07:18:53;;;;;;;5.95;2.42;;;;;;;14.07;61.70;102453.09;5061044;27;20128;-69
2023/09/24 07:21:22;;;;;;;5.50;2.33;;;;;;;14.05;61.50;102450.59;5071418;27;20421;-68
2023/09/24 07:24:02;;;;;;;6.32;2.58;;;;;;;14.07;61.74;102439.59;5061122;27;20534;-71
2023/09/24 07:26:30;;;;;;;4.40;1.90;;;;;;;14.11;61.82;102451.66;5066478;27;20046;-75
2023/09/24 07:28:59;;;;;;;7.80;2.28;;;;;;;14.12;61.33;102451.44;5063529;27;20070;-72
2023/09/24 07:31:28;;;;;;;4.43;2.10;;;;;;;14.16;61.23;102451.88;5074732;27;20074;-68
2023/09/24 07:34:00;;;;;;;3.88;1.90;;;;;;;14.12;61.46;102454.16;5063600;27;20476;-68
2023/09/24 07:36:30;;;;;;;3.75;1.95;;;;;;;14.13;61.83;102469.34;5068969;27;20478;-68
2023/09/24 07:39:05;;;;;;;3.72;2.20;;;;;;;14.12;61.46;102464.97;5071465;27;20128;-68
2023/09/24 07:41:33;;;;;;;3.88;2.13;;;;;;;14.15;61.55;102467.25;5072513;27;20087;-68
2023/09/24 07:44:01;;;;;;;3.50;1.90;;;;;;;14.18;61.77;102474.13;5061403;27;20808;-68
2023/09/24 07:46:29;;;;;;;5.78;2.22;;;;;;;14.18;61.72;102476.84;5062950;28;20141;-68
2023/09/24 07:49:03;;;;;;;5.80;1.88;;;;;;;14.20;61.89;102474.75;5059403;27;20051;-68
2023/09/24 07:51:31;;;;;;;7.40;2.13;;;;;;;14.20;61.61;102478.28;5064099;27;20060;-69
2023/09/24 07:54:00;;;;;;;4.78;2.22;;;;;;;14.20;61.85;102477.47;5062793;27;20130;-68
2023/09/24 07:56:28;;;;;;;4.05;1.98;;;;;;;14.20;61.83;102474.75;5062466;28;20202;-68
2023/09/24 07:58:56;;;;;;;5.15;2.25;;;;;;;14.21;61.97;102479.13;5059992;27;20054;-68
2023/09/24 08:01:24;;;;;;;5.20;1.60;;;;;;;14.24;61.91;102479.53;5049396;28;20066;-67
2023/09/24 08:03:52;;;;;;;6.78;1.90;;;;;;;14.27;61.50;102481.84;5059891;27;20049;-68
2023/09/24 08:06:22;;;;;;;4.90;2.25;;;;;;;14.30;61.81;102480.59;5060688;28;20071;-68
2023/09/24 08:08:50;;;;;;;5.07;1.98;;;;;;;14.28;62.20;102479.97;5092642;27;20471;-68
2023/09/24 08:11:26;;;;;;;;;;;;;;;14.23;61.89;102482.47;5056734;27;20056;-68
2023/09/24 08:13:54;;;;;;;5.15;1.88;;;;;;;14.27;62.10;102486.41;5062765;28;19921;-68
2023/09/24 08:16:22;;;;;;;5.53;2.35;;;;;;;14.29;62.09;102485.16;5061135;28;20045;-68
2023/09/24 08:18:50;;;;;;;8.30;2.53;;;;;;;14.33;62.08;102491.00;5061457;27;20054;-68
2023/09/24 08:21:19;;;;;;;6.80;2.60;;;;;;;14.30;62.44;102486.84;5063264;27;20489;-68
2023/09/24 08:23:48;;;;;;;6.93;2.25;;;;;;;14.32;62.36;102492.03;5062352;28;20132;-68
2023/09/24 08:26:17;;;;;;;6.10;2.38;;;;;;;14.33;62.64;102482.88;5062309;28;20057;-68
2023/09/24 08:28:45;;;;;;;6.18;2.42;;;;;;;14.26;62.59;102476.63;5064601;27;20131;-68
2023/09/24 08:31:13;;;;;;;7.35;2.42;;;;;;;14.34;62.89;102484.53;5055493;27;20112;-68
2023/09/24 08:33:41;;;;;;;4.50;2.20;;;;;;;14.32;62.62;102487.47;5062756;28;21176;-68
2023/09/24 08:36:11;;;;;;;4.13;1.92;;;;;;;14.34;62.88;102484.53;5059911;28;20045;-67
2023/09/24 08:38:39;;;;;;;5.82;2.05;;;;;;;14.33;63.01;102478.31;5062061;27;20056;-68
2023/09/24 08:41:12;;;;;;;5.50;2.10;;;;;;;14.31;63.19;102480.38;5062103;27;20408;-68
2023/09/24 08:43:42;;;;;;;7.00;2.80;;;;;;;14.38;63.53;102490.38;5095173;27;20081;-68
2023/09/24 08:46:11;;;;;;;4.18;2.00;;;;;;;14.42;63.43;102483.53;5062205;28;20079;-68
2023/09/24 08:48:40;;;;;;;7.60;2.35;;;;;;;14.39;63.42;102487.47;5062106;28;20056;-68
2023/09/24 08:51:10;;;;;;;4.07;2.17;;;;;;;14.49;63.25;102487.09;5068214;27;20109;-68
2023/09/24 08:53:39;;;;;;;4.07;1.85;;;;;;;14.54;63.19;102495.41;5061855;28;20061;-67
2023/09/24 08:56:08;;;;;;;6.50;2.08;;;;;;;14.52;63.55;102487.50;5058291;27;20044;-68
2023/09/24 08:58:41;;;;;;;5.65;2.33;;;;;;;14.62;63.79;102496.03;5061057;28;20057;-68
2023/09/24 09:01:10;;;;;;;6.40;2.22;;;;;;;14.64;63.57;102493.13;5060004;27;20768;-68
2023/09/24 09:03:39;;;;;;;5.18;2.08;;;;;;;14.70;64.01;102496.88;5060565;28;20079;-67
2023/09/24 09:06:08;;;;;;;3.60;1.95;;;;;;;14.72;63.96;102495.63;5059095;28;20075;-68
2023/09/24 09:08:51;;;;;;;4.50;2.00;;;;;;;14.74;63.94;102496.25;5060433;28;20044;-68
2023/09/24 09:11:20;;;;;;;3.92;1.83;;;;;;;14.75;64.22;102491.66;5066196;27;20091;-68
2023/09/24 09:13:50;;;;;;;7.10;2.13;;;;;;;14.79;64.21;102495.63;5062103;28;20096;-68
2023/09/24 09:16:20;;;;;;;6.03;2.40;;;;;;;14.87;65.02;102480.00;5061213;28;20049;-67
2023/09/24 09:19:01;;;;;;;5.75;2.20;;;;;;;14.96;64.76;102473.31;5053852;27;20068;-67
2023/09/24 09:21:29;;;;;;;7.60;1.95;;;;;;;14.97;64.58;102472.28;5052173;27;20059;-68
2023/09/24 09:23:57;;;;;;;5.30;2.03;;;;;;;14.97;64.55;102464.16;5063716;27;20049;-68
2023/09/24 09:26:27;;;;;;;4.40;1.98;;;;;;;15.02;64.63;102470.81;5065811;27;20116;-68
2023/09/24 09:28:57;;;;;;;5.72;1.90;;;;;;;15.12;65.26;102455.78;5060313;27;20392;-68
2023/09/24 09:31:25;;;;;;;3.25;1.60;;;;;;;15.11;64.94;102459.53;5074128;27;20053;-68
2023/09/24 09:33:54;;;;;;;4.78;1.65;;;;;;;15.11;65.20;102458.69;5057089;28;20053;-68
2023/09/24 09:36:23;;;;;;;4.07;1.80;;;;;;;15.13;65.76;102454.72;5057674;28;20184;-68
2023/09/24 09:38:51;;;;;;;4.28;1.70;;;;;;;15.14;65.54;102448.28;5058481;27;20052;-68
2023/09/24 09:41:20;;;;;;;4.10;1.67;;;;;;;15.14;65.67;102445.56;5060804;28;20095;-68
2023/09/24 09:43:49;;;;;;;3.95;1.55;;;;;;;15.15;65.76;102438.28;5058255;27;20045;-68
2023/09/24 09:46:20;;;;;;;3.95;1.48;;;;;;;15.21;66.22;102437.41;5060454;28;20052;-68
2023/09/24 09:48:54;;;;;;;5.32;1.92;;;;;;;15.22;66.53;102429.09;5060883;27;20059;-68
2023/09/24 09:51:22;;;;;;;3.47;1.55;;;;;;;15.21;66.23;102424.72;5059807;28;20049;-68
2023/09/24 09:53:53;;;;;;;4.13;1.30;;;;;;;15.21;66.27;102432.84;5055679;27;20086;-68
2023/09/24 09:56:23;;;;;;;3.78;1.88;;;;;;;15.43;67.32;102419.00;5060847;28;20045;-68
2023/09/24 09:58:51;;;;;;;3.55;1.20;;;;;;;15.44;66.36;102421.50;5057167;27;20097;-68
2023/09/24 10:01:21;;;;;;;2.47;1.10;;;;;;;15.39;66.24;102426.72;5053744;27;20156;-67
2023/09/24 10:03:51;;;;;;;5.32;1.75;;;;;;;15.35;66.38;102421.94;5058812;28;20045;-69
2023/09/24 10:06:20;;;;;;;6.35;1.73;;;;;;;15.38;66.47;102424.22;5056821;28;20045;-67
2023/09/24 10:08:48;;;;;;;3.17;1.23;;;;;;;15.45;67.39;102425.03;5061533;27;20068;-66
2023/09/24 10:11:50;;;;;;;10.60;1.35;;;;;;;15.81;67.55;102424.41;5060765;27;20049;-67
2023/09/24 10:14:32;;;;;;;4.20;1.58;;;;;;;16.00;67.94;102411.78;5062324;28;20056;-67
2023/09/24 10:17:23;;;;;;;3.72;1.35;;;;;;;16.04;66.23;102407.56;5059617;27;20044;-72
2023/09/24 10:19:52;;;;;;;6.55;1.52;;;;;;;16.05;66.60;102404.66;4706869;27;10000496;-69
2023/09/24 10:22:30;;;;;;;3.60;1.48;;;;;;;16.15;65.84;102398.72;5052470;28;20128;-69
2023/09/24 10:24:58;;;;;;;3.17;1.25;;;;;;;16.19;65.55;102400.78;5056008;28;20055;-70
2023/09/24 10:27:28;;;;;;;2.35;1.20;;;;;;;16.18;65.51;102403.72;5053548;27;20059;-70
2023/09/24 10:30:03;;;;;;;5.07;1.60;;;;;;;16.05;65.86;102372.09;5062127;27;20045;-69
2023/09/24 10:32:48;;;;;;;4.10;1.75;;;;;;;16.22;65.83;102394.91;5073295;28;20458;-66
2023/09/24 10:35:18;;;;;;;6.63;1.38;;;;;;;16.13;65.66;102395.41;5056771;27;20106;-67
2023/09/24 10:38:04;;;;;;;4.32;1.80;;;;;;;16.23;65.77;102396.56;5052959;27;20045;-65
2023/09/24 10:40:34;;;;;;;4.95;1.50;;;;;;;16.29;65.22;102400.28;5058570;27;20057;-66
2023/09/24 10:43:13;;;;;;;3.83;1.38;;;;;;;16.26;65.24;102398.00;5056382;27;20060;-66
2023/09/24 10:45:42;;;;;;;3.33;1.50;;;;;;;16.30;65.28;102395.69;5057120;28;20060;-66
2023/09/24 10:48:12;;;;;;;3.55;1.55;;;;;;;16.24;65.25;102400.94;5060295;27;20088;-65
2023/09/24 10:50:44;;;;;;;3.50;1.20;;;;;;;16.22;65.16;102392.19;5051963;27;20049;-66
2023/09/24 10:53:17;;;;;;;2.10;1.23;;;;;;;16.26;65.10;102392.59;5060740;28;20064;-66
2023/09/24 10:55:45;;;;;;;7.03;2.17;;;;;;;16.28;64.99;102395.91;5049477;27;20147;-66
2023/09/24 10:58:32;;;;;;;2.53;1.50;;;;;;;16.30;64.71;102406.53;5053055;28;20542;-65
2023/09/24 11:01:00;;;;;;;2.97;1.15;;;;;;;16.25;64.60;102367.34;5052604;27;20057;-66
2023/09/24 11:03:34;;;;;;;3.40;1.52;;;;;;;16.38;64.38;102387.25;5060390;27;20042;-67
2023/09/24 11:06:04;;;;;;;4.15;1.30;;;;;;;16.40;64.57;102393.31;5054694;28;20488;-68
2023/09/24 11:08:32;;;;;;;3.53;1.55;;;;;;;16.41;64.52;102387.66;5057292;28;20128;-68
2023/09/24 11:11:00;;;;;;;2.90;1.02;;;;;;;16.48;64.54;102390.31;5057722;28;20466;-66
2023/09/24 11:13:27;;;;;;;5.13;1.48;;;;;;;16.52;64.42;102392.34;5061100;27;20049;-67
2023/09/24 11:15:55;;;;;;;6.78;1.27;;;;;;;16.54;64.51;102382.09;5057516;28;20045;-67
2023/09/24 11:18:25;;;;;;;2.67;1.38;;;;;;;16.65;64.03;102383.28;5062239;27;20045;-68
2023/09/24 11:20:54;;;;;;;5.57;1.42;;;;;;;16.69;64.07;102380.94;5111740;27;20046;-67
2023/09/24 11:23:22;;;;;;;6.95;1.85;;;;;;;16.64;64.22;102367.19;5064779;27;20045;-66
2023/09/24 11:25:51;;;;;;;2.70;1.38;;;;;;;16.63;64.55;102366.34;5067923;27;20056;-67
2023/09/24 11:28:30;;;;;;;2.13;1.13;;;;;;;16.63;64.26;102357.38;5075122;27;20042;-63
2023/09/24 11:30:58;;;;;;;4.68;1.52;;;;;;;16.66;63.92;102379.50;5072287;27;20045;-68
2023/09/24 11:33:25;;;;;;;3.08;1.35;;;;;;;16.72;64.27;102380.50;5076222;27;20049;-67
2023/09/24 11:35:55;;;;;;;4.63;1.40;;;;;;;16.70;64.77;102378.00;5131350;27;20059;-67